Time;durP1;ratioP1;P1;durP2;ratioP2;P2;SDS_P1;SDS_P2;PMS_P1;PMS_P2;Temp;Humidity;BMP_temperature;BMP_pressure;BME280_temperature;BME280_humidity;BME280_pressure;Samples;Min_cycle;Max_cycle;Signal;HPM_P1;HPM_P2
2022/09/25 00:01:25;;;;;;;6.03;4.90;;;;;;;11.96;100.00;98309.75;4965822;28;20248;-58
2022/09/25 00:03:53;;;;;;;6.63;4.90;;;;;;;11.97;100.00;98302.75;4974938;28;20778;-59
2022/09/25 00:06:22;;;;;;;9.73;4.90;;;;;;;12.03;100.00;98309.94;4960575;28;20318;-58
2022/09/25 00:08:49;;;;;;;15.77;4.97;;;;;;;11.98;100.00;98314.84;4982251;28;20243;-58
2022/09/25 00:11:18;;;;;;;6.47;5.17;;;;;;;11.98;100.00;98321.84;4980113;28;20290;-59
2022/09/25 00:13:44;;;;;;;10.80;6.00;;;;;;;11.97;100.00;98318.44;4984900;28;20799;-59
2022/09/25 00:16:13;;;;;;;7.23;5.57;;;;;;;11.96;100.00;98311.56;4981598;28;20263;-58
2022/09/25 00:21:32;;;;;;;9.57;5.80;;;;;;;11.96;100.00;98309.75;4924972;28;20249;-59
2022/09/25 00:24:00;;;;;;;7.30;5.53;;;;;;;11.93;100.00;98302.25;4980726;28;20640;-59
2022/09/25 00:26:28;;;;;;;9.20;5.70;;;;;;;11.96;100.00;98301.13;4982666;28;20299;-59
2022/09/25 00:28:55;;;;;;;8.47;6.03;;;;;;;11.95;100.00;98297.66;4984831;28;20247;-58
2022/09/25 00:31:24;;;;;;;10.93;5.90;;;;;;;11.96;100.00;98291.44;4982653;28;20240;-58
2022/09/25 00:33:51;;;;;;;9.23;6.40;;;;;;;11.94;100.00;98288.19;4978093;28;20225;-59
2022/09/25 00:36:17;;;;;;;11.03;5.63;;;;;;;11.95;100.00;98291.63;4981779;28;20315;-58
2022/09/25 00:38:47;;;;;;;9.97;6.10;;;;;;;11.99;100.00;98292.94;4986084;28;20593;-58
2022/09/25 00:41:15;;;;;;;7.27;5.40;;;;;;;11.99;100.00;98292.94;4974965;28;20231;-59
2022/09/25 00:43:44;;;;;;;11.80;5.60;;;;;;;12.00;100.00;98293.75;4966697;28;20228;-59
2022/09/25 00:46:16;;;;;;;9.60;5.87;;;;;;;12.00;100.00;98285.91;4982270;28;20231;-59
2022/09/25 00:48:48;;;;;;;8.07;5.90;;;;;;;11.99;100.00;98284.25;4984319;28;20231;-59
2022/09/25 00:51:18;;;;;;;9.03;6.90;;;;;;;11.97;100.00;98287.06;4981900;28;20237;-58
2022/09/25 00:53:47;;;;;;;9.33;6.03;;;;;;;11.96;100.00;98282.81;4980767;28;20240;-60
2022/09/25 00:56:14;;;;;;;9.97;5.90;;;;;;;11.91;100.00;98285.91;4982867;28;20310;-59
2022/09/25 00:58:42;;;;;;;9.40;6.40;;;;;;;11.90;100.00;98286.09;4985477;28;20231;-58
2022/09/25 01:01:09;;;;;;;8.70;6.40;;;;;;;11.87;100.00;98283.81;4965133;28;20239;-60
2022/09/25 01:03:37;;;;;;;8.60;6.13;;;;;;;11.85;100.00;98281.34;4980726;28;20252;-59
2022/09/25 01:06:03;;;;;;;10.27;6.87;;;;;;;11.84;100.00;98284.94;4982734;28;20272;-58
2022/09/25 01:08:32;;;;;;;8.17;6.00;;;;;;;11.77;100.00;98281.34;4982652;28;20232;-60
2022/09/25 01:11:01;;;;;;;13.90;6.70;;;;;;;11.71;100.00;98289.88;4985278;28;20240;-59
2022/09/25 01:13:28;;;;;;;8.60;6.67;;;;;;;11.68;100.00;98288.41;4981593;28;20657;-59
2022/09/25 01:16:02;;;;;;;11.60;6.60;;;;;;;11.68;100.00;98283.19;4984792;28;20236;-59
2022/09/25 01:18:46;;;;;;;8.83;6.70;;;;;;;11.69;100.00;98286.59;4981950;28;20244;-60
2022/09/25 01:21:21;;;;;;;9.97;6.63;;;;;;;11.71;100.00;98290.69;4982919;28;20240;-60
2022/09/25 01:24:04;;;;;;;10.23;6.40;;;;;;;11.70;100.00;98288.22;4977662;28;20243;-59
2022/09/25 01:27:01;;;;;;;11.70;6.53;;;;;;;11.73;100.00;98282.69;4982084;28;20233;-60
2022/09/25 01:29:36;;;;;;;10.70;6.33;;;;;;;11.76;100.00;98272.72;4982213;28;21346;-59
2022/09/25 01:32:10;;;;;;;9.03;6.47;;;;;;;11.82;100.00;98279.06;4985392;28;20228;-59
2022/09/25 01:34:42;;;;;;;8.60;6.23;;;;;;;11.82;100.00;98274.66;4981376;28;20239;-59
2022/09/25 01:37:17;;;;;;;9.70;7.00;;;;;;;11.81;100.00;98278.25;4983052;28;20295;-59
2022/09/25 01:39:47;;;;;;;10.93;6.53;;;;;;;11.80;100.00;98273.19;4985000;28;20728;-58
2022/09/25 01:42:19;;;;;;;7.97;6.33;;;;;;;11.80;100.00;98279.25;4976028;28;20716;-60
2022/09/25 01:44:55;;;;;;;9.10;6.43;;;;;;;11.78;100.00;98273.38;4985149;28;20231;-59
2022/09/25 01:47:26;;;;;;;9.53;6.73;;;;;;;11.77;100.00;98269.13;4982376;28;20251;-59
2022/09/25 01:49:57;;;;;;;7.70;6.17;;;;;;;11.82;100.00;98268.59;4984679;28;20298;-59
2022/09/25 01:52:29;;;;;;;7.73;6.33;;;;;;;11.79;100.00;98263.69;4979408;28;20303;-59
2022/09/25 01:55:01;;;;;;;8.90;6.00;;;;;;;11.80;100.00;98257.50;4981229;28;20341;-59
2022/09/25 01:57:33;;;;;;;9.63;6.27;;;;;;;11.82;100.00;98258.13;4982718;28;20232;-60
2022/09/25 02:00:08;;;;;;;9.57;6.30;;;;;;;11.75;100.00;98268.47;4977479;28;20291;-60
2022/09/25 02:02:49;;;;;;;9.23;5.70;;;;;;;11.73;100.00;98273.03;4985327;28;20697;-59
2022/09/25 02:05:20;;;;;;;10.03;5.83;;;;;;;11.70;100.00;98260.31;4985687;28;20247;-59
2022/09/25 02:07:53;;;;;;;8.63;5.67;;;;;;;11.65;100.00;98260.00;4988886;28;20649;-59
2022/09/25 02:10:25;;;;;;;9.53;5.20;;;;;;;11.65;100.00;98250.38;4985541;28;20608;-59
2022/09/25 02:12:56;;;;;;;10.47;4.73;;;;;;;11.60;100.00;98252.66;4988409;28;20225;-58
2022/09/25 02:15:29;;;;;;;14.30;5.20;;;;;;;11.57;100.00;98260.00;4985651;28;20283;-59
2022/09/25 02:20:49;;;;;;;8.73;5.70;;;;;;;11.61;100.00;98261.31;4986309;28;20739;-59
2022/09/25 02:23:19;;;;;;;11.27;5.70;;;;;;;11.54;100.00;98258.56;4983655;28;20696;-58
2022/09/25 02:25:51;;;;;;;7.63;5.33;;;;;;;11.49;100.00;98264.25;4983629;28;20236;-58
2022/09/25 02:28:18;;;;;;;8.70;5.43;;;;;;;11.47;100.00;98265.44;4985562;28;20227;-59
2022/09/25 02:30:48;;;;;;;10.50;5.97;;;;;;;11.43;100.00;98264.91;4988608;28;20247;-59
2022/09/25 02:33:15;;;;;;;6.67;5.10;;;;;;;11.44;100.00;98263.13;4985129;28;20235;-60
2022/09/25 02:35:41;;;;;;;8.47;5.40;;;;;;;11.42;100.00;98265.09;4988207;28;20286;-60
2022/09/25 02:38:09;;;;;;;7.30;5.30;;;;;;;11.48;100.00;98265.25;4985603;28;20236;-59
2022/09/25 02:40:41;;;;;;;8.13;5.87;;;;;;;11.48;100.00;98261.81;4988304;28;20243;-59
2022/09/25 02:43:19;;;;;;;9.87;5.73;;;;;;;11.45;100.00;98259.53;4985031;28;20239;-59
2022/09/25 02:45:58;;;;;;;11.07;5.70;;;;;;;11.45;100.00;98260.34;4988077;28;20333;-59
2022/09/25 02:48:33;;;;;;;12.90;6.47;;;;;;;11.46;100.00;98256.75;4984879;28;20562;-59
2022/09/25 02:51:08;;;;;;;11.57;5.70;;;;;;;11.48;100.00;98265.25;4988067;28;20233;-59
2022/09/25 02:53:39;;;;;;;9.30;5.80;;;;;;;11.49;100.00;98255.63;4985059;28;20239;-59
2022/09/25 02:56:11;;;;;;;8.80;5.30;;;;;;;11.49;100.00;98260.84;4987727;28;20322;-60
2022/09/25 02:58:42;;;;;;;10.17;5.23;;;;;;;11.51;100.00;98256.28;4984687;28;20291;-59
2022/09/25 03:03:57;;;;;;;8.27;5.70;;;;;;;11.49;100.00;98255.63;5712678;23;20295;-59
2022/09/25 03:06:25;;;;;;;7.20;5.70;;;;;;;11.49;100.00;98255.63;4923941;29;20631;-58
2022/09/25 03:08:55;;;;;;;7.37;4.87;;;;;;;11.51;100.00;98253.66;4936769;28;20276;-59
2022/09/25 03:11:25;;;;;;;12.07;5.87;;;;;;;11.52;100.00;98255.28;4931224;29;20316;-59
2022/09/25 03:13:56;;;;;;;8.50;6.75;;;;;;;11.52;100.00;98253.47;4941329;28;20496;-59
2022/09/25 03:16:32;;;;;;;13.10;6.20;;;;;;;11.57;100.00;98260.84;4951565;28;20295;-59
2022/09/25 03:19:00;;;;;;;9.80;5.57;;;;;;;11.60;100.00;98252.66;4952278;28;20288;-59
2022/09/25 03:21:26;;;;;;;7.67;5.90;;;;;;;11.63;100.00;98248.88;4970087;28;20232;-59
2022/09/25 03:23:55;;;;;;;12.20;5.43;;;;;;;11.66;100.00;98259.00;4968939;28;20243;-60
2022/09/25 03:26:22;;;;;;;7.67;5.10;;;;;;;11.72;100.00;98254.91;4966899;28;20229;-61
2022/09/25 03:28:49;;;;;;;9.50;5.33;;;;;;;11.70;100.00;98262.09;4972364;28;20290;-59
2022/09/25 03:31:15;;;;;;;9.10;5.37;;;;;;;11.69;100.00;98260.47;4966317;28;20230;-59
2022/09/25 03:33:43;;;;;;;12.77;5.97;;;;;;;11.69;100.00;98255.22;4962679;28;20292;-59
2022/09/25 03:36:13;;;;;;;7.03;5.10;;;;;;;11.69;100.00;98255.22;4966598;28;20229;-59
2022/09/25 03:38:41;;;;;;;9.00;5.37;;;;;;;11.71;100.00;98256.72;4966522;28;20271;-60
2022/09/25 03:41:10;;;;;;;6.93;4.93;;;;;;;11.70;100.00;98254.25;4971697;28;20287;-59
2022/09/25 03:43:37;;;;;;;7.97;4.53;;;;;;;11.70;100.00;98262.09;4974157;28;20240;-60
2022/09/25 03:46:04;;;;;;;8.87;5.37;;;;;;;11.70;100.00;98262.09;4976480;28;20255;-60
2022/09/25 03:48:31;;;;;;;9.27;5.50;;;;;;;11.68;100.00;98259.66;4968123;28;20766;-59
2022/09/25 03:50:58;;;;;;;9.87;5.13;;;;;;;11.69;100.00;98260.47;4967747;28;20306;-59
2022/09/25 03:53:26;;;;;;;6.93;5.30;;;;;;;11.66;100.00;98259.81;4971623;28;20284;-59
2022/09/25 03:55:53;;;;;;;9.30;5.37;;;;;;;11.70;100.00;98259.47;4973295;28;20232;-59
2022/09/25 03:58:20;;;;;;;8.77;4.90;;;;;;;11.71;100.00;98259.31;4969201;28;20304;-59
2022/09/25 04:00:47;;;;;;;7.17;4.70;;;;;;;11.70;100.00;98262.09;4971551;28;20237;-60
2022/09/25 04:03:14;;;;;;;7.70;4.47;;;;;;;11.70;100.00;98251.63;4966300;28;20236;-58
2022/09/25 04:05:42;;;;;;;6.90;5.07;;;;;;;11.70;100.00;98256.84;4967710;28;20724;-59
2022/09/25 04:08:09;;;;;;;9.63;5.20;;;;;;;11.70;100.00;98255.06;4973446;28;20225;-60
2022/09/25 04:10:37;;;;;;;7.67;4.83;;;;;;;11.69;100.00;98250.84;4971984;28;20249;-59
2022/09/25 04:13:05;;;;;;;6.90;4.93;;;;;;;11.70;100.00;98251.63;4967060;28;20530;-59
2022/09/25 04:15:32;;;;;;;9.73;4.87;;;;;;;11.68;100.00;98251.81;4961526;28;20272;-59
2022/09/25 04:17:59;;;;;;;10.37;4.40;;;;;;;11.62;100.00;98249.88;4968002;28;20266;-59
2022/09/25 04:20:25;;;;;;;9.83;5.03;;;;;;;11.63;100.00;98251.50;4964501;28;20239;-59
2022/09/25 04:22:52;;;;;;;8.47;4.03;;;;;;;11.60;100.00;98247.44;4964512;28;20299;-60
2022/09/25 04:25:20;;;;;;;7.73;4.10;;;;;;;11.57;100.00;98247.75;4957461;28;20300;-59
2022/09/25 04:27:48;;;;;;;8.00;4.43;;;;;;;11.56;100.00;98246.13;4966641;28;20323;-59
2022/09/25 04:30:15;;;;;;;6.33;4.20;;;;;;;11.49;100.00;98251.19;4963907;28;20233;-58
2022/09/25 04:35:26;;;;;;;7.70;4.73;;;;;;;11.48;100.00;98254.00;4966165;28;20846;-59
2022/09/25 04:37:53;;;;;;;7.80;4.83;;;;;;;11.47;100.00;98253.16;4974155;28;20241;-59
2022/09/25 04:40:20;;;;;;;7.17;5.27;;;;;;;11.47;100.00;98249.75;4963545;28;20620;-59
2022/09/25 04:42:48;;;;;;;9.90;6.23;;;;;;;11.43;100.00;98256.28;4967838;28;20647;-59
2022/09/25 04:45:14;;;;;;;8.17;5.80;;;;;;;11.41;100.00;98256.44;4970068;28;20240;-58
2022/09/25 04:47:41;;;;;;;7.77;5.50;;;;;;;11.42;100.00;98249.41;4961004;28;20229;-59
2022/09/25 04:50:08;;;;;;;9.80;5.10;;;;;;;11.47;100.00;98257.59;4964559;28;20319;-59
2022/09/25 04:52:35;;;;;;;8.73;5.40;;;;;;;11.48;100.00;98261.81;4964154;28;20240;-60
2022/09/25 04:55:03;;;;;;;7.70;5.40;;;;;;;11.44;100.00;98257.91;4974246;28;20243;-58
2022/09/25 04:57:29;;;;;;;8.43;5.67;;;;;;;11.41;100.00;98260.84;4962743;28;20246;-59
2022/09/25 04:59:58;;;;;;;10.20;5.37;;;;;;;11.36;100.00;98256.94;4969734;28;20231;-58
2022/09/25 05:02:26;;;;;;;8.77;5.30;;;;;;;11.37;100.00;98262.97;4968092;28;20237;-58
2022/09/25 05:04:53;;;;;;;10.40;5.93;;;;;;;11.37;100.00;98260.34;4972063;28;20689;-59
2022/09/25 05:07:19;;;;;;;10.90;5.83;;;;;;;11.39;100.00;98262.81;4966647;28;20227;-58
2022/09/25 05:09:46;;;;;;;8.63;5.20;;;;;;;11.40;100.00;98262.63;4965392;28;20791;-59
2022/09/25 05:12:12;;;;;;;11.53;5.50;;;;;;;11.43;100.00;98269.34;4963930;28;20321;-58
2022/09/25 05:14:41;;;;;;;9.93;5.70;;;;;;;11.43;100.00;98258.91;4966238;28;20245;-60
2022/09/25 05:17:10;;;;;;;10.13;5.30;;;;;;;11.46;100.00;98255.94;4965001;28;20242;-59
2022/09/25 05:19:36;;;;;;;11.03;5.10;;;;;;;11.53;100.00;98264.75;4967565;28;20239;-59
2022/09/25 05:22:03;;;;;;;9.37;5.70;;;;;;;11.51;100.00;98261.50;4974057;28;20329;-59
2022/09/25 05:24:30;;;;;;;9.30;5.53;;;;;;;11.53;100.00;98264.75;4958115;28;20239;-60
2022/09/25 05:26:57;;;;;;;8.87;4.90;;;;;;;11.57;100.00;98260.84;4966931;28;20236;-58
2022/09/25 05:29:24;;;;;;;8.80;5.60;;;;;;;11.60;100.00;98257.06;4962081;28;20237;-60
2022/09/25 05:31:50;;;;;;;8.40;5.97;;;;;;;11.61;100.00;98262.13;4969151;28;20648;-59
2022/09/25 05:34:18;;;;;;;7.73;5.80;;;;;;;11.64;100.00;98264.41;4966768;28;20241;-59
2022/09/25 05:36:45;;;;;;;8.17;5.30;;;;;;;11.66;100.00;98261.63;4966304;28;20231;-58
2022/09/25 05:39:11;;;;;;;7.60;5.13;;;;;;;11.70;100.00;98262.91;4972164;28;20600;-60
2022/09/25 05:41:38;;;;;;;9.73;5.67;;;;;;;11.74;100.00;98266.00;4972306;28;20233;-60
2022/09/25 05:44:08;;;;;;;10.80;6.73;;;;;;;11.76;100.00;98267.47;4974271;28;20240;-59
2022/09/25 05:46:35;;;;;;;10.17;6.47;;;;;;;11.77;100.00;98269.13;4971238;28;20238;-59
2022/09/25 05:49:01;;;;;;;16.93;9.00;;;;;;;11.79;100.00;98274.16;4969326;28;20330;-58
2022/09/25 05:51:29;;;;;;;11.47;8.27;;;;;;;11.78;100.00;98277.75;4968430;28;20266;-59
2022/09/25 05:53:56;;;;;;;10.80;6.80;;;;;;;11.78;100.00;98269.91;4968795;28;20307;-59
2022/09/25 05:56:23;;;;;;;8.27;5.90;;;;;;;11.78;100.00;98277.75;4968061;28;20236;-59
2022/09/25 05:58:50;;;;;;;9.27;7.00;;;;;;;11.79;100.00;98276.78;4971411;28;20239;-59
2022/09/25 06:01:17;;;;;;;9.03;6.73;;;;;;;11.79;100.00;98276.78;4971807;28;20881;-59
2022/09/25 06:03:44;;;;;;;9.27;5.50;;;;;;;11.80;100.00;98276.63;4969906;28;20288;-60
2022/09/25 06:06:11;;;;;;;9.67;6.27;;;;;;;11.86;100.00;98280.34;4965134;28;20222;-59
2022/09/25 06:08:39;;;;;;;11.53;7.87;;;;;;;11.84;100.00;98284.13;4971150;28;20228;-59
2022/09/25 06:11:06;;;;;;;16.93;12.10;;;;;;;11.88;100.00;98286.25;4982383;28;20289;-58
2022/09/25 06:13:35;;;;;;;16.63;11.90;;;;;;;11.87;100.00;98286.41;4971390;28;20326;-59
2022/09/25 06:16:04;;;;;;;15.73;10.53;;;;;;;11.86;100.00;98290.03;4970215;28;20552;-59
2022/09/25 06:18:31;;;;;;;16.17;12.20;;;;;;;11.85;100.00;98283.97;4971399;28;20222;-60
2022/09/25 06:21:03;;;;;;;15.63;12.00;;;;;;;11.88;100.00;98293.28;4968641;28;20225;-59
2022/09/25 06:23:30;;;;;;;19.23;11.70;;;;;;;11.84;100.00;98300.63;4972728;28;20310;-60
2022/09/25 06:26:01;;;;;;;17.33;10.70;;;;;;;11.86;100.00;98292.63;4973588;28;20310;-60
2022/09/25 06:28:29;;;;;;;17.23;10.67;;;;;;;11.88;100.00;98288.84;4967940;28;22943;-59
2022/09/25 06:30:59;;;;;;;18.47;11.60;;;;;;;11.87;100.00;98291.66;4967506;28;20236;-59
2022/09/25 06:33:25;;;;;;;18.27;11.20;;;;;;;11.88;100.00;98295.91;4961908;28;20747;-58
2022/09/25 06:35:52;;;;;;;13.37;10.50;;;;;;;11.91;100.00;98298.97;4971804;28;20251;-59
2022/09/25 06:38:18;;;;;;;16.47;9.77;;;;;;;11.92;100.00;98292.75;4966151;28;20717;-58
2022/09/25 06:40:45;;;;;;;11.23;8.97;;;;;;;12.00;100.00;98296.38;4970402;28;20291;-58
2022/09/25 06:43:15;;;;;;;12.90;8.97;;;;;;;12.00;100.00;98291.97;4964559;28;20302;-59
2022/09/25 06:45:42;;;;;;;12.07;9.53;;;;;;;12.01;100.00;98301.44;4969195;28;20636;-59
2022/09/25 06:48:11;;;;;;;11.80;9.23;;;;;;;12.04;100.00;98295.06;4967032;28;20360;-58
2022/09/25 06:50:41;;;;;;;13.33;9.33;;;;;;;12.06;100.00;98299.16;4970063;28;20230;-58
2022/09/25 06:53:08;;;;;;;11.70;9.30;;;;;;;12.09;100.00;98300.59;4972666;28;20237;-58
2022/09/25 06:55:35;;;;;;;12.03;9.53;;;;;;;12.19;100.00;98295.19;4962854;28;20244;-59
2022/09/25 06:58:03;;;;;;;15.20;9.73;;;;;;;12.29;100.00;98308.06;4970310;28;20283;-58
2022/09/25 07:00:31;;;;;;;15.60;10.57;;;;;;;12.34;100.00;98301.31;4963340;28;20246;-59
2022/09/25 07:05:43;;;;;;;14.10;9.30;;;;;;;12.54;100.00;98298.28;4967878;28;20239;-59
2022/09/25 07:08:11;;;;;;;12.50;9.33;;;;;;;12.65;100.00;98300.53;4965101;28;20228;-59
2022/09/25 07:10:38;;;;;;;13.30;9.87;;;;;;;12.63;100.00;98296.47;4972201;28;20240;-59
2022/09/25 07:13:05;;;;;;;13.70;9.37;;;;;;;12.65;100.00;98297.09;4964796;28;20239;-60
2022/09/25 07:15:33;;;;;;;14.30;10.33;;;;;;;12.75;100.00;98302.09;4965486;28;20252;-60
2022/09/25 07:17:59;;;;;;;17.93;10.33;;;;;;;12.79;100.00;98304.19;4967124;28;20295;-60
2022/09/25 07:20:26;;;;;;;13.77;10.50;;;;;;;12.79;100.00;98303.41;4971897;28;20279;-60
2022/09/25 07:22:53;;;;;;;16.73;11.50;;;;;;;12.55;100.00;98307.78;4970700;28;20225;-60
2022/09/25 07:25:20;;;;;;;17.00;11.87;;;;;;;12.60;100.00;98302.03;4964855;28;20230;-59
2022/09/25 07:27:46;;;;;;;18.90;11.80;;;;;;;12.62;100.00;98311.34;4971990;28;20229;-60
2022/09/25 07:30:13;;;;;;;19.53;11.07;;;;;;;12.74;100.00;98306.50;4966178;28;20258;-60
2022/09/25 07:32:43;;;;;;;16.93;12.20;;;;;;;12.76;100.00;98308.97;4972201;28;20237;-58
2022/09/25 07:35:10;;;;;;;23.50;14.50;;;;;;;12.76;100.00;98308.97;4960519;28;20269;-59
2022/09/25 07:37:37;;;;;;;21.00;11.93;;;;;;;12.81;100.00;98311.88;4970659;28;20233;-58
2022/09/25 07:40:04;;;;;;;17.83;13.93;;;;;;;12.76;100.00;98308.97;4971706;28;20263;-59
2022/09/25 07:42:30;;;;;;;23.63;15.17;;;;;;;12.77;100.00;98313.22;4970357;28;20224;-60
2022/09/25 07:44:57;;;;;;;20.40;14.37;;;;;;;12.73;100.00;98314.56;4968860;28;20229;-59
2022/09/25 07:47:24;;;;;;;23.80;14.83;;;;;;;12.69;100.00;98314.91;4965373;28;20291;-59
2022/09/25 07:49:52;;;;;;;20.90;15.10;;;;;;;12.87;100.00;98319.06;4966722;28;20245;-59
2022/09/25 07:52:18;;;;;;;20.20;14.90;;;;;;;12.92;100.00;98310.66;4968896;28;20288;-59
2022/09/25 07:54:45;;;;;;;21.57;15.23;;;;;;;13.11;100.00;98320.69;4970907;28;20244;-59
2022/09/25 07:57:12;;;;;;;26.87;17.00;;;;;;;13.12;100.00;98314.47;4970000;28;20837;-60
2022/09/25 07:59:38;;;;;;;21.80;16.13;;;;;;;13.19;100.00;98305.91;4968420;28;20241;-59
2022/09/25 08:02:05;;;;;;;23.17;15.83;;;;;;;13.39;100.00;98312.31;4966213;28;20820;-59
2022/09/25 08:04:31;;;;;;;21.03;15.47;;;;;;;13.81;100.00;98309.31;4972739;28;20314;-59
2022/09/25 08:06:59;;;;;;;21.43;15.33;;;;;;;14.23;100.00;98315.75;4969693;28;20227;-59
2022/09/25 08:09:26;;;;;;;22.53;14.80;;;;;;;14.38;92.47;98312.31;4960033;28;20753;-59
2022/09/25 08:11:53;;;;;;;20.23;14.53;;;;;;;14.51;93.24;98322.97;4965623;28;20334;-59
2022/09/25 08:14:21;;;;;;;19.13;14.00;;;;;;;14.86;90.88;98323.19;4965142;28;20245;-60
2022/09/25 08:16:47;;;;;;;19.17;13.07;;;;;;;14.85;89.23;98324.19;4964670;28;20233;-59
2022/09/25 08:19:17;;;;;;;20.90;14.73;;;;;;;14.82;85.56;98313.25;4964118;28;20250;-58
2022/09/25 08:21:43;;;;;;;18.80;15.00;;;;;;;14.68;89.09;98320.13;4963344;28;20254;-59
2022/09/25 08:24:11;;;;;;;19.93;14.03;;;;;;;14.76;89.75;98323.50;4967669;28;20294;-60
2022/09/25 08:26:38;;;;;;;21.70;14.90;;;;;;;14.85;87.04;98326.81;4968839;28;20917;-59
2022/09/25 08:29:05;;;;;;;22.40;14.30;;;;;;;14.95;87.81;98313.38;4967965;28;20289;-59
2022/09/25 08:31:33;;;;;;;22.00;15.17;;;;;;;15.10;89.19;98318.56;4965204;28;20704;-60
2022/09/25 08:34:00;;;;;;;21.00;15.27;;;;;;;15.22;88.31;98321.53;4971531;28;20327;-59
2022/09/25 08:36:27;;;;;;;19.40;13.93;;;;;;;15.31;88.26;98323.03;4968403;28;20689;-59
2022/09/25 08:38:57;;;;;;;21.23;14.93;;;;;;;15.37;89.82;98318.00;4969063;28;20243;-59
2022/09/25 08:41:29;;;;;;;20.60;14.23;;;;;;;15.51;85.66;98324.97;4967673;28;20570;-60
2022/09/25 08:44:02;;;;;;;19.13;14.13;;;;;;;15.30;83.44;98313.50;4970769;28;20243;-59
2022/09/25 08:49:27;;;;;;;20.23;14.50;;;;;;;15.28;86.97;98317.31;4965466;28;20236;-60
2022/09/25 08:52:00;;;;;;;20.10;15.23;;;;;;;15.40;85.99;98313.19;4966157;28;20238;-59
2022/09/25 08:54:30;;;;;;;20.67;14.83;;;;;;;15.52;85.76;98318.72;4955166;28;20228;-60
2022/09/25 08:57:04;;;;;;;21.13;15.27;;;;;;;15.32;86.07;98314.13;4970260;28;20243;-59
2022/09/25 08:59:37;;;;;;;23.20;15.90;;;;;;;15.15;84.88;98313.56;4961836;28;20234;-60
2022/09/25 09:02:13;;;;;;;18.77;14.27;;;;;;;15.24;86.86;98311.63;4969335;28;20239;-60
2022/09/25 09:04:45;;;;;;;23.43;16.80;;;;;;;15.14;89.57;98313.75;4961987;28;20241;-60
2022/09/25 09:07:17;;;;;;;20.60;16.17;;;;;;;14.89;89.32;98304.41;4966354;28;20230;-59
2022/09/25 09:09:48;;;;;;;25.37;16.23;;;;;;;14.71;88.96;98310.09;4971411;28;20244;-60
2022/09/25 09:12:21;;;;;;;24.60;17.47;;;;;;;14.45;88.16;98307.94;4960303;28;20243;-59
2022/09/25 09:14:50;;;;;;;28.37;16.17;;;;;;;14.26;89.06;98304.09;4969399;28;20306;-59
2022/09/25 09:17:19;;;;;;;28.87;18.03;;;;;;;14.00;88.97;98310.59;4965060;28;20235;-59
2022/09/25 09:19:48;;;;;;;28.87;18.73;;;;;;;13.75;92.66;98305.59;4970159;28;20318;-60
2022/09/25 09:22:20;;;;;;;32.77;20.50;;;;;;;13.58;94.24;98312.84;4966877;28;20304;-60
2022/09/25 09:25:05;;;;;;;26.63;19.30;;;;;;;13.43;96.85;98305.75;4965607;28;20257;-59
2022/09/25 09:27:51;;;;;;;26.80;19.17;;;;;;;13.36;99.36;98317.06;4963381;28;20694;-58
2022/09/25 09:30:20;;;;;;;29.40;20.00;;;;;;;13.34;100.00;98319.03;4965221;28;20238;-59
2022/09/25 09:33:08;;;;;;;35.03;20.93;;;;;;;13.36;100.00;98314.44;4965893;28;20234;-60
2022/09/25 09:35:45;;;;;;;31.33;21.23;;;;;;;13.42;100.00;98319.00;4965883;28;20275;-58
2022/09/25 09:38:20;;;;;;;31.67;20.27;;;;;;;13.59;100.00;98317.09;4969309;28;20225;-59
2022/09/25 09:41:07;;;;;;;31.23;21.37;;;;;;;13.69;99.79;98316.81;4967128;28;20238;-59
2022/09/25 09:43:46;;;;;;;38.03;22.70;;;;;;;13.99;99.71;98316.84;4966284;28;20264;-59
2022/09/25 09:46:20;;;;;;;29.37;19.83;;;;;;;14.42;96.65;98313.56;4966506;28;20277;-59
2022/09/25 09:48:57;;;;;;;28.67;20.47;;;;;;;14.91;94.44;98325.25;4969042;28;20283;-60
2022/09/25 09:51:31;;;;;;;32.47;21.57;;;;;;;14.88;90.44;98318.53;4961148;28;20341;-59
2022/09/25 09:54:03;;;;;;;29.37;20.07;;;;;;;15.01;89.83;98327.56;4970713;28;20229;-59
2022/09/25 09:56:34;;;;;;;30.83;20.80;;;;;;;14.67;88.77;98321.13;4965776;28;20236;-60
2022/09/25 09:59:04;;;;;;;32.63;20.37;;;;;;;14.67;90.73;98314.06;4966646;28;20235;-60
2022/09/25 10:01:36;;;;;;;34.87;22.87;;;;;;;14.63;91.18;98310.16;4968304;28;20626;-60
2022/09/25 10:04:05;;;;;;;35.83;23.60;;;;;;;14.70;91.77;98323.44;4964277;28;20221;-61
2022/09/25 10:06:35;;;;;;;30.37;21.60;;;;;;;14.97;90.10;98318.44;4963519;28;20302;-60
2022/09/25 10:09:02;;;;;;;33.73;22.60;;;;;;;15.16;89.41;98320.44;4965451;28;20279;-60
2022/09/25 10:11:32;;;;;;;32.63;21.93;;;;;;;15.38;87.24;98328.31;4967143;28;20263;-59
2022/09/25 10:14:03;;;;;;;29.87;20.63;;;;;;;15.55;87.24;98323.59;4964862;28;20233;-59
2022/09/25 10:16:31;;;;;;;33.93;21.40;;;;;;;15.62;87.39;98328.94;4963710;28;20244;-59
2022/09/25 10:19:02;;;;;;;33.27;22.37;;;;;;;15.57;86.27;98320.78;4970790;28;20234;-60
2022/09/25 10:21:33;;;;;;;29.80;20.67;;;;;;;15.44;87.00;98317.06;4963782;28;20262;-60
2022/09/25 10:24:02;;;;;;;31.30;21.13;;;;;;;15.29;87.88;98322.41;4965584;28;20264;-60
2022/09/25 10:26:30;;;;;;;30.87;21.00;;;;;;;15.04;87.24;98316.69;4966676;28;21778;-60
2022/09/25 10:28:58;;;;;;;29.97;20.30;;;;;;;14.75;90.24;98315.81;4968726;28;20229;-59
2022/09/25 10:31:28;;;;;;;31.40;21.77;;;;;;;14.37;89.84;98315.94;4967258;28;20227;-59
2022/09/25 10:34:05;;;;;;;38.37;22.63;;;;;;;14.11;93.17;98311.97;4973789;28;20615;-57
2022/09/25 10:36:35;;;;;;;32.47;21.73;;;;;;;13.89;94.41;98317.09;4968272;28;20280;-59
2022/09/25 10:39:04;;;;;;;32.80;22.03;;;;;;;13.75;95.54;98310.84;4966767;28;20326;-59
2022/09/25 10:41:41;;;;;;;34.37;22.43;;;;;;;13.62;97.18;98318.53;4968687;28;20223;-59
2022/09/25 10:44:20;;;;;;;33.63;23.30;;;;;;;13.56;96.93;98317.44;4965834;28;20657;-59
2022/09/25 10:52:46;;;;;;;36.27;22.53;;;;;;;13.65;96.65;98313.75;4954056;28;20233;-60
2022/09/25 10:55:16;;;;;;;30.90;21.00;;;;;;;13.77;96.77;98313.31;4965245;28;20244;-59
2022/09/25 10:57:45;;;;;;;34.07;22.43;;;;;;;13.92;97.43;98322.00;4966467;28;20710;-59
2022/09/25 11:00:21;;;;;;;36.60;22.60;;;;;;;14.01;96.31;98328.78;4961419;28;20226;-61
2022/09/25 11:02:52;;;;;;;44.90;24.80;;;;;;;14.03;96.64;98326.78;4968770;28;20242;-61
2022/09/25 11:05:24;;;;;;;39.77;24.80;;;;;;;14.13;97.57;98317.84;4964483;28;20709;-60
2022/09/25 11:07:54;;;;;;;37.97;23.07;;;;;;;14.21;97.71;98317.75;4964375;28;20238;-58
2022/09/25 11:10:22;;;;;;;32.53;23.00;;;;;;;14.36;96.82;98327.44;4965819;28;20797;-59
2022/09/25 11:12:50;;;;;;;38.67;25.23;;;;;;;14.36;96.07;98325.59;4970700;28;20243;-58
2022/09/25 11:15:20;;;;;;;37.90;23.77;;;;;;;14.45;95.54;98319.25;4965522;28;20222;-59
2022/09/25 11:17:50;;;;;;;44.93;28.37;;;;;;;14.68;94.39;98325.41;4970912;28;20239;-59
2022/09/25 11:20:28;;;;;;;54.93;37.33;;;;;;;14.96;95.15;98322.06;4964037;28;20303;-60
2022/09/25 11:23:23;;;;;;;35.87;23.33;;;;;;;15.17;94.66;98323.91;4972913;28;20364;-58
2022/09/25 11:25:57;;;;;;;35.17;24.20;;;;;;;15.20;90.96;98324.31;4964169;28;20242;-58
2022/09/25 11:28:32;;;;;;;30.90;21.33;;;;;;;15.43;92.14;98325.13;4972532;28;20225;-59
2022/09/25 11:31:07;;;;;;;35.20;22.17;;;;;;;15.58;90.09;98328.47;4968955;28;20245;-59
2022/09/25 11:33:41;;;;;;;30.03;21.30;;;;;;;15.57;88.05;98328.69;4960801;28;20234;-59
2022/09/25 11:36:16;;;;;;;25.87;19.77;;;;;;;15.78;85.68;98325.19;4968529;28;20276;-58
2022/09/25 11:41:36;;;;;;;28.53;18.60;;;;;;;15.91;84.49;98321.84;4959028;28;20244;-59
2022/09/25 11:44:13;;;;;;;28.53;19.03;;;;;;;16.01;85.30;98318.88;4967841;28;20281;-59
2022/09/25 11:46:50;;;;;;;26.97;18.17;;;;;;;16.06;81.08;98325.19;4961784;28;20572;-58
2022/09/25 11:49:23;;;;;;;24.77;19.33;;;;;;;15.81;83.40;98316.91;4961666;28;20232;-58
2022/09/25 11:52:28;;;;;;;26.47;18.43;;;;;;;15.84;81.42;98313.09;4964680;28;20249;-59
2022/09/25 11:55:26;;;;;;;27.53;19.63;;;;;;;15.89;83.45;98310.72;4966407;28;20761;-59
2022/09/25 11:58:01;;;;;;;26.90;18.60;;;;;;;16.09;81.95;98309.00;4969739;28;20299;-58